sensor_id;sensor_type;location;lat;lon;timestamp;pressure;altitude;pressure_sealevel;temperature
66403;BMP180;53212;52.112;5.144;2024-02-16T00:01:59;100897.80;;;11.20
66403;BMP180;53212;52.112;5.144;2024-02-16T00:04:24;100889.60;;;11.20
66403;BMP180;53212;52.112;5.144;2024-02-16T00:06:50;100894.60;;;11.20
66403;BMP180;53212;52.112;5.144;2024-02-16T00:09:16;100895.00;;;11.18
66403;BMP180;53212;52.112;5.144;2024-02-16T00:11:42;100892.20;;;11.14
66403;BMP180;53212;52.112;5.144;2024-02-16T00:14:09;100892.20;;;11.10
66403;BMP180;53212;52.112;5.144;2024-02-16T00:16:34;100890.20;;;11.10
66403;BMP180;53212;52.112;5.144;2024-02-16T00:19:00;100888.40;;;11.10
66403;BMP180;53212;52.112;5.144;2024-02-16T00:21:25;100886.40;;;11.10
66403;BMP180;53212;52.112;5.144;2024-02-16T00:23:51;100887.20;;;11.08
66403;BMP180;53212;52.112;5.144;2024-02-16T00:26:16;100889.60;;;11.02
66403;BMP180;53212;52.112;5.144;2024-02-16T00:28:41;100886.80;;;11.00
66403;BMP180;53212;52.112;5.144;2024-02-16T00:31:07;100888.60;;;11.00
66403;BMP180;53212;52.112;5.144;2024-02-16T00:33:33;100887.40;;;11.00
66403;BMP180;53212;52.112;5.144;2024-02-16T00:35:58;100893.60;;;11.00
66403;BMP180;53212;52.112;5.144;2024-02-16T00:38:24;100892.80;;;11.00
66403;BMP180;53212;52.112;5.144;2024-02-16T00:40:49;100888.40;;;11.00
66403;BMP180;53212;52.112;5.144;2024-02-16T00:43:15;100890.00;;;11.00
66403;BMP180;53212;52.112;5.144;2024-02-16T00:45:43;100892.60;;;11.00
66403;BMP180;53212;52.112;5.144;2024-02-16T00:48:10;100888.80;;;10.96
66403;BMP180;53212;52.112;5.144;2024-02-16T00:50:35;100881.00;;;10.90
66403;BMP180;53212;52.112;5.144;2024-02-16T00:53:02;100879.40;;;10.90
66403;BMP180;53212;52.112;5.144;2024-02-16T00:55:27;100884.80;;;10.90
66403;BMP180;53212;52.112;5.144;2024-02-16T00:57:53;100884.00;;;10.82
66403;BMP180;53212;52.112;5.144;2024-02-16T01:00:18;100881.40;;;10.80
66403;BMP180;53212;52.112;5.144;2024-02-16T01:02:51;100876.80;;;10.80
66403;BMP180;53212;52.112;5.144;2024-02-16T01:05:18;100873.40;;;10.74
66403;BMP180;53212;52.112;5.144;2024-02-16T01:07:44;100875.00;;;10.70
66403;BMP180;53212;52.112;5.144;2024-02-16T01:10:11;100876.20;;;10.70
66403;BMP180;53212;52.112;5.144;2024-02-16T01:12:38;100875.80;;;10.70
66403;BMP180;53212;52.112;5.144;2024-02-16T01:15:04;100871.80;;;10.70
66403;BMP180;53212;52.112;5.144;2024-02-16T01:17:30;100866.60;;;10.70
66403;BMP180;53212;52.112;5.144;2024-02-16T01:19:58;100866.40;;;10.72
66403;BMP180;53212;52.112;5.144;2024-02-16T01:22:27;100866.20;;;10.80
66403;BMP180;53212;52.112;5.144;2024-02-16T01:24:54;100858.80;;;10.80
66403;BMP180;53212;52.112;5.144;2024-02-16T01:27:20;100852.80;;;10.80
66403;BMP180;53212;52.112;5.144;2024-02-16T01:29:46;100847.20;;;10.80
66403;BMP180;53212;52.112;5.144;2024-02-16T01:32:12;100838.80;;;10.80
66403;BMP180;53212;52.112;5.144;2024-02-16T01:34:39;100835.00;;;10.80
66403;BMP180;53212;52.112;5.144;2024-02-16T01:37:04;100840.40;;;10.76
66403;BMP180;53212;52.112;5.144;2024-02-16T01:39:30;100846.00;;;10.70
66403;BMP180;53212;52.112;5.144;2024-02-16T01:41:56;100845.60;;;10.70
66403;BMP180;53212;52.112;5.144;2024-02-16T01:44:21;100849.60;;;10.70
66403;BMP180;53212;52.112;5.144;2024-02-16T01:46:46;100858.00;;;10.60
66403;BMP180;53212;52.112;5.144;2024-02-16T01:49:12;100850.40;;;10.60
66403;BMP180;53212;52.112;5.144;2024-02-16T01:51:39;100844.60;;;10.60
66403;BMP180;53212;52.112;5.144;2024-02-16T01:54:05;100844.60;;;10.60
66403;BMP180;53212;52.112;5.144;2024-02-16T01:56:31;100840.00;;;10.60
66403;BMP180;53212;52.112;5.144;2024-02-16T01:58:56;100837.20;;;10.60
66403;BMP180;53212;52.112;5.144;2024-02-16T02:01:22;100823.60;;;10.60
66403;BMP180;53212;52.112;5.144;2024-02-16T02:03:47;100817.20;;;10.70
66403;BMP180;53212;52.112;5.144;2024-02-16T02:06:13;100818.60;;;10.68
66403;BMP180;53212;52.112;5.144;2024-02-16T02:08:39;100846.80;;;10.70
66403;BMP180;53212;52.112;5.144;2024-02-16T02:11:05;100864.60;;;10.70
66403;BMP180;53212;52.112;5.144;2024-02-16T02:13:31;100851.20;;;10.70
66403;BMP180;53212;52.112;5.144;2024-02-16T02:15:57;100845.00;;;10.76
66403;BMP180;53212;52.112;5.144;2024-02-16T02:18:23;100836.60;;;10.70
66403;BMP180;53212;52.112;5.144;2024-02-16T02:20:50;100836.60;;;10.70
66403;BMP180;53212;52.112;5.144;2024-02-16T02:23:15;100826.80;;;10.70
66403;BMP180;53212;52.112;5.144;2024-02-16T02:25:41;100821.60;;;10.66
66403;BMP180;53212;52.112;5.144;2024-02-16T02:28:06;100823.40;;;10.60
66403;BMP180;53212;52.112;5.144;2024-02-16T02:30:32;100815.80;;;10.60
66403;BMP180;53212;52.112;5.144;2024-02-16T02:32:57;100816.60;;;10.50
66403;BMP180;53212;52.112;5.144;2024-02-16T02:35:23;100814.40;;;10.50
66403;BMP180;53212;52.112;5.144;2024-02-16T02:37:48;100824.60;;;10.50
66403;BMP180;53212;52.112;5.144;2024-02-16T02:40:14;100821.40;;;10.50
66403;BMP180;53212;52.112;5.144;2024-02-16T02:42:39;100817.60;;;10.50
66403;BMP180;53212;52.112;5.144;2024-02-16T02:45:06;100813.80;;;10.50
66403;BMP180;53212;52.112;5.144;2024-02-16T02:47:31;100812.00;;;10.50
66403;BMP180;53212;52.112;5.144;2024-02-16T02:49:57;100806.00;;;10.50
66403;BMP180;53212;52.112;5.144;2024-02-16T02:52:23;100801.20;;;10.50
66403;BMP180;53212;52.112;5.144;2024-02-16T02:54:48;100797.40;;;10.50
66403;BMP180;53212;52.112;5.144;2024-02-16T02:57:14;100797.00;;;10.50
66403;BMP180;53212;52.112;5.144;2024-02-16T02:59:39;100803.40;;;10.50
66403;BMP180;53212;52.112;5.144;2024-02-16T03:02:04;100794.00;;;10.50
66403;BMP180;53212;52.112;5.144;2024-02-16T03:04:30;100796.80;;;10.50
66403;BMP180;53212;52.112;5.144;2024-02-16T03:06:56;100797.40;;;10.40
66403;BMP180;53212;52.112;5.144;2024-02-16T03:09:21;100801.60;;;10.40
66403;BMP180;53212;52.112;5.144;2024-02-16T03:11:48;100795.00;;;10.40
66403;BMP180;53212;52.112;5.144;2024-02-16T03:14:18;100790.20;;;10.30
66403;BMP180;53212;52.112;5.144;2024-02-16T03:16:43;100786.60;;;10.30
66403;BMP180;53212;52.112;5.144;2024-02-16T03:19:09;100786.80;;;10.30
66403;BMP180;53212;52.112;5.144;2024-02-16T03:21:35;100786.40;;;10.30
66403;BMP180;53212;52.112;5.144;2024-02-16T03:24:02;100782.60;;;10.26
66403;BMP180;53212;52.112;5.144;2024-02-16T03:26:29;100782.80;;;10.20
66403;BMP180;53212;52.112;5.144;2024-02-16T03:28:54;100789.00;;;10.20
66403;BMP180;53212;52.112;5.144;2024-02-16T03:31:23;100789.60;;;10.20
66403;BMP180;53212;52.112;5.144;2024-02-16T03:33:50;100790.20;;;10.10
66403;BMP180;53212;52.112;5.144;2024-02-16T03:36:20;100778.00;;;10.10
66403;BMP180;53212;52.112;5.144;2024-02-16T03:38:47;100782.80;;;10.10
66403;BMP180;53212;52.112;5.144;2024-02-16T03:41:21;100788.60;;;10.06
66403;BMP180;53212;52.112;5.144;2024-02-16T03:43:49;100785.40;;;10.10
66403;BMP180;53212;52.112;5.144;2024-02-16T03:46:15;100780.60;;;10.06
66403;BMP180;53212;52.112;5.144;2024-02-16T03:48:41;100779.00;;;10.00
66403;BMP180;53212;52.112;5.144;2024-02-16T03:51:07;100781.20;;;10.00
66403;BMP180;53212;52.112;5.144;2024-02-16T03:53:33;100778.00;;;10.00
66403;BMP180;53212;52.112;5.144;2024-02-16T03:55:59;100787.80;;;10.00
66403;BMP180;53212;52.112;5.144;2024-02-16T03:58:25;100790.00;;;10.00
66403;BMP180;53212;52.112;5.144;2024-02-16T04:00:50;100789.80;;;10.00
66403;BMP180;53212;52.112;5.144;2024-02-16T04:03:18;100793.00;;;10.00
66403;BMP180;53212;52.112;5.144;2024-02-16T04:05:44;100795.00;;;10.00
66403;BMP180;53212;52.112;5.144;2024-02-16T04:08:10;100793.80;;;10.06
66403;BMP180;53212;52.112;5.144;2024-02-16T04:10:35;100794.20;;;10.10
66403;BMP180;53212;52.112;5.144;2024-02-16T04:13:02;100787.20;;;10.10
66403;BMP180;53212;52.112;5.144;2024-02-16T04:15:28;100786.20;;;10.10
66403;BMP180;53212;52.112;5.144;2024-02-16T04:17:54;100788.80;;;10.10
66403;BMP180;53212;52.112;5.144;2024-02-16T04:20:20;100786.80;;;10.10
66403;BMP180;53212;52.112;5.144;2024-02-16T04:22:46;100789.40;;;10.08
66403;BMP180;53212;52.112;5.144;2024-02-16T04:25:12;100785.40;;;10.00
66403;BMP180;53212;52.112;5.144;2024-02-16T04:27:37;100779.60;;;10.00
66403;BMP180;53212;52.112;5.144;2024-02-16T04:30:04;100782.20;;;10.00
66403;BMP180;53212;52.112;5.144;2024-02-16T04:32:31;100784.60;;;10.00
66403;BMP180;53212;52.112;5.144;2024-02-16T04:34:56;100788.20;;;10.00
66403;BMP180;53212;52.112;5.144;2024-02-16T04:37:23;100787.40;;;10.00
66403;BMP180;53212;52.112;5.144;2024-02-16T04:39:49;100789.00;;;9.94
66403;BMP180;53212;52.112;5.144;2024-02-16T04:42:15;100794.60;;;10.00
66403;BMP180;53212;52.112;5.144;2024-02-16T04:44:41;100795.20;;;9.90
66403;BMP180;53212;52.112;5.144;2024-02-16T04:47:07;100789.60;;;9.92
66403;BMP180;53212;52.112;5.144;2024-02-16T04:49:32;100787.00;;;9.90
66403;BMP180;53212;52.112;5.144;2024-02-16T04:51:58;100788.80;;;9.90
66403;BMP180;53212;52.112;5.144;2024-02-16T04:54:24;100786.60;;;9.90
66403;BMP180;53212;52.112;5.144;2024-02-16T04:56:50;100785.80;;;9.90
66403;BMP180;53212;52.112;5.144;2024-02-16T04:59:17;100797.40;;;9.90
66403;BMP180;53212;52.112;5.144;2024-02-16T05:01:43;100798.00;;;9.90
66403;BMP180;53212;52.112;5.144;2024-02-16T05:04:12;100793.60;;;9.90
66403;BMP180;53212;52.112;5.144;2024-02-16T05:06:43;100794.60;;;9.90
66403;BMP180;53212;52.112;5.144;2024-02-16T05:09:10;100790.80;;;9.84
66403;BMP180;53212;52.112;5.144;2024-02-16T05:11:36;100789.40;;;9.80
66403;BMP180;53212;52.112;5.144;2024-02-16T05:14:01;100786.60;;;9.80
66403;BMP180;53212;52.112;5.144;2024-02-16T05:16:28;100789.60;;;9.80
66403;BMP180;53212;52.112;5.144;2024-02-16T05:18:57;100790.80;;;9.80
66403;BMP180;53212;52.112;5.144;2024-02-16T05:21:23;100783.80;;;9.80
66403;BMP180;53212;52.112;5.144;2024-02-16T05:23:48;100781.00;;;9.78
66403;BMP180;53212;52.112;5.144;2024-02-16T05:26:14;100779.00;;;9.80
66403;BMP180;53212;52.112;5.144;2024-02-16T05:28:39;100774.00;;;9.80
66403;BMP180;53212;52.112;5.144;2024-02-16T05:31:17;100774.80;;;9.80
66403;BMP180;53212;52.112;5.144;2024-02-16T05:33:46;100777.20;;;9.80
66403;BMP180;53212;52.112;5.144;2024-02-16T05:36:12;100781.40;;;9.80
66403;BMP180;53212;52.112;5.144;2024-02-16T05:38:38;100781.40;;;9.80
66403;BMP180;53212;52.112;5.144;2024-02-16T05:41:08;100783.60;;;9.80
66403;BMP180;53212;52.112;5.144;2024-02-16T05:43:34;100781.60;;;9.88
66403;BMP180;53212;52.112;5.144;2024-02-16T05:46:00;100782.00;;;9.90
66403;BMP180;53212;52.112;5.144;2024-02-16T05:48:26;100786.00;;;9.90
66403;BMP180;53212;52.112;5.144;2024-02-16T05:50:59;100791.60;;;9.94
66403;BMP180;53212;52.112;5.144;2024-02-16T05:53:27;100787.80;;;9.98
66403;BMP180;53212;52.112;5.144;2024-02-16T05:55:55;100784.80;;;10.00
66403;BMP180;53212;52.112;5.144;2024-02-16T05:58:21;100783.40;;;10.00
66403;BMP180;53212;52.112;5.144;2024-02-16T06:00:48;100783.80;;;10.00
66403;BMP180;53212;52.112;5.144;2024-02-16T06:03:14;100782.80;;;10.00
66403;BMP180;53212;52.112;5.144;2024-02-16T06:05:40;100779.40;;;10.00
66403;BMP180;53212;52.112;5.144;2024-02-16T06:08:07;100786.40;;;10.10
66403;BMP180;53212;52.112;5.144;2024-02-16T06:10:33;100788.40;;;10.10
66403;BMP180;53212;52.112;5.144;2024-02-16T06:12:59;100791.60;;;10.10
66403;BMP180;53212;52.112;5.144;2024-02-16T06:15:24;100795.60;;;10.20
66403;BMP180;53212;52.112;5.144;2024-02-16T06:17:50;100802.00;;;10.20
66403;BMP180;53212;52.112;5.144;2024-02-16T06:20:16;100805.00;;;10.30
66403;BMP180;53212;52.112;5.144;2024-02-16T06:22:42;100808.20;;;10.30
66403;BMP180;53212;52.112;5.144;2024-02-16T06:25:08;100811.40;;;10.38
66403;BMP180;53212;52.112;5.144;2024-02-16T06:27:35;100809.00;;;10.40
66403;BMP180;53212;52.112;5.144;2024-02-16T06:30:03;100818.20;;;10.40
66403;BMP180;53212;52.112;5.144;2024-02-16T06:32:33;100817.00;;;10.48
66403;BMP180;53212;52.112;5.144;2024-02-16T06:34:59;100821.60;;;10.50
66403;BMP180;53212;52.112;5.144;2024-02-16T06:37:24;100828.20;;;10.50
66403;BMP180;53212;52.112;5.144;2024-02-16T06:39:50;100825.60;;;10.60
66403;BMP180;53212;52.112;5.144;2024-02-16T06:42:15;100831.00;;;10.60
66403;BMP180;53212;52.112;5.144;2024-02-16T06:44:41;100840.40;;;10.62
66403;BMP180;53212;52.112;5.144;2024-02-16T06:47:06;100835.40;;;10.70
66403;BMP180;53212;52.112;5.144;2024-02-16T06:49:32;100834.40;;;10.70
66403;BMP180;53212;52.112;5.144;2024-02-16T06:51:57;100836.20;;;10.70
66403;BMP180;53212;52.112;5.144;2024-02-16T06:54:23;100841.60;;;10.70
66403;BMP180;53212;52.112;5.144;2024-02-16T06:56:51;100840.60;;;10.70
66403;BMP180;53212;52.112;5.144;2024-02-16T06:59:17;100842.60;;;10.70
66403;BMP180;53212;52.112;5.144;2024-02-16T07:01:43;100845.00;;;10.70
66403;BMP180;53212;52.112;5.144;2024-02-16T07:04:09;100850.40;;;10.70
66403;BMP180;53212;52.112;5.144;2024-02-16T07:06:35;100852.80;;;10.70
66403;BMP180;53212;52.112;5.144;2024-02-16T07:09:01;100852.80;;;10.70
66403;BMP180;53212;52.112;5.144;2024-02-16T07:11:28;100858.20;;;10.70
66403;BMP180;53212;52.112;5.144;2024-02-16T07:13:53;100868.20;;;10.70
66403;BMP180;53212;52.112;5.144;2024-02-16T07:16:20;100864.40;;;10.80
66403;BMP180;53212;52.112;5.144;2024-02-16T07:18:45;100869.80;;;10.80
66403;BMP180;53212;52.112;5.144;2024-02-16T07:21:10;100868.60;;;10.80
66403;BMP180;53212;52.112;5.144;2024-02-16T07:23:37;100866.20;;;10.84
66403;BMP180;53212;52.112;5.144;2024-02-16T07:26:04;100862.80;;;10.90
66403;BMP180;53212;52.112;5.144;2024-02-16T07:28:29;100866.60;;;10.92
66403;BMP180;53212;52.112;5.144;2024-02-16T07:30:56;100867.20;;;11.00
66403;BMP180;53212;52.112;5.144;2024-02-16T07:33:21;100875.00;;;11.06
66403;BMP180;53212;52.112;5.144;2024-02-16T07:35:50;100876.40;;;11.10
66403;BMP180;53212;52.112;5.144;2024-02-16T07:38:17;100879.60;;;11.20
66403;BMP180;53212;52.112;5.144;2024-02-16T07:40:42;100884.40;;;11.20
66403;BMP180;53212;52.112;5.144;2024-02-16T07:43:11;100889.20;;;11.30
66403;BMP180;53212;52.112;5.144;2024-02-16T07:45:36;100894.20;;;11.32
66403;BMP180;53212;52.112;5.144;2024-02-16T07:48:01;100901.80;;;11.40
66403;BMP180;53212;52.112;5.144;2024-02-16T07:50:30;100901.80;;;11.40
66403;BMP180;53212;52.112;5.144;2024-02-16T07:52:56;100908.80;;;11.50
66403;BMP180;53212;52.112;5.144;2024-02-16T07:55:21;100907.40;;;11.52
66403;BMP180;53212;52.112;5.144;2024-02-16T07:57:52;100911.40;;;11.60
66403;BMP180;53212;52.112;5.144;2024-02-16T08:00:19;100912.80;;;11.70
66403;BMP180;53212;52.112;5.144;2024-02-16T08:02:45;100925.20;;;11.70
66403;BMP180;53212;52.112;5.144;2024-02-16T08:05:11;100919.00;;;11.70
66403;BMP180;53212;52.112;5.144;2024-02-16T08:07:41;100925.60;;;11.80
66403;BMP180;53212;52.112;5.144;2024-02-16T08:10:08;100924.40;;;11.80
66403;BMP180;53212;52.112;5.144;2024-02-16T08:12:34;100930.20;;;11.80
66403;BMP180;53212;52.112;5.144;2024-02-16T08:15:05;100930.20;;;11.90
66403;BMP180;53212;52.112;5.144;2024-02-16T08:17:33;100936.20;;;11.96
66403;BMP180;53212;52.112;5.144;2024-02-16T08:19:59;100937.40;;;12.00
66403;BMP180;53212;52.112;5.144;2024-02-16T08:22:25;100935.20;;;12.00
66403;BMP180;53212;52.112;5.144;2024-02-16T08:24:50;100945.60;;;12.10
66403;BMP180;53212;52.112;5.144;2024-02-16T08:27:17;100949.00;;;12.14
66403;BMP180;53212;52.112;5.144;2024-02-16T08:29:43;100946.60;;;12.20
66403;BMP180;53212;52.112;5.144;2024-02-16T08:32:10;100944.40;;;12.30
66403;BMP180;53212;52.112;5.144;2024-02-16T08:34:37;100945.40;;;12.34
66403;BMP180;53212;52.112;5.144;2024-02-16T08:37:04;100947.20;;;12.40
66403;BMP180;53212;52.112;5.144;2024-02-16T08:39:30;100944.80;;;12.50
66403;BMP180;53212;52.112;5.144;2024-02-16T08:41:57;100948.20;;;12.50
66403;BMP180;53212;52.112;5.144;2024-02-16T08:44:24;100956.20;;;12.60
66403;BMP180;53212;52.112;5.144;2024-02-16T08:46:50;100954.60;;;12.62
66403;BMP180;53212;52.112;5.144;2024-02-16T08:49:16;100961.80;;;12.70
66403;BMP180;53212;52.112;5.144;2024-02-16T08:51:43;100958.20;;;12.70
66403;BMP180;53212;52.112;5.144;2024-02-16T08:54:10;100957.20;;;12.80
66403;BMP180;53212;52.112;5.144;2024-02-16T08:56:36;100965.00;;;12.80
66403;BMP180;53212;52.112;5.144;2024-02-16T08:59:02;100973.00;;;12.82
66403;BMP180;53212;52.112;5.144;2024-02-16T09:01:37;100972.60;;;12.90
66403;BMP180;53212;52.112;5.144;2024-02-16T09:04:03;100970.40;;;12.90
66403;BMP180;53212;52.112;5.144;2024-02-16T09:06:29;100974.00;;;12.82
66403;BMP180;53212;52.112;5.144;2024-02-16T09:08:55;100980.00;;;12.80
66403;BMP180;53212;52.112;5.144;2024-02-16T09:11:22;100980.80;;;12.70
66403;BMP180;53212;52.112;5.144;2024-02-16T09:13:49;100995.40;;;12.70
66403;BMP180;53212;52.112;5.144;2024-02-16T09:16:15;101002.40;;;12.60
66403;BMP180;53212;52.112;5.144;2024-02-16T09:18:40;101010.80;;;12.60
66403;BMP180;53212;52.112;5.144;2024-02-16T09:21:06;101023.40;;;12.60
66403;BMP180;53212;52.112;5.144;2024-02-16T09:23:34;101037.60;;;12.60
66403;BMP180;53212;52.112;5.144;2024-02-16T09:26:00;101035.60;;;12.60
66403;BMP180;53212;52.112;5.144;2024-02-16T09:28:27;101037.80;;;12.60
66403;BMP180;53212;52.112;5.144;2024-02-16T09:30:56;101037.40;;;12.54
66403;BMP180;53212;52.112;5.144;2024-02-16T09:33:22;101053.60;;;12.50
66403;BMP180;53212;52.112;5.144;2024-02-16T09:35:50;101043.60;;;12.50
66403;BMP180;53212;52.112;5.144;2024-02-16T09:38:16;101052.80;;;12.60
66403;BMP180;53212;52.112;5.144;2024-02-16T09:40:43;101055.80;;;12.60
66403;BMP180;53212;52.112;5.144;2024-02-16T09:43:09;101054.60;;;12.70
66403;BMP180;53212;52.112;5.144;2024-02-16T09:45:35;101052.20;;;12.80
66403;BMP180;53212;52.112;5.144;2024-02-16T09:48:02;101058.00;;;12.80
66403;BMP180;53212;52.112;5.144;2024-02-16T09:50:30;101062.00;;;12.86
66403;BMP180;53212;52.112;5.144;2024-02-16T09:52:56;101074.60;;;12.80
66403;BMP180;53212;52.112;5.144;2024-02-16T09:55:22;101077.80;;;12.80
66403;BMP180;53212;52.112;5.144;2024-02-16T09:58:03;101084.80;;;12.80
66403;BMP180;53212;52.112;5.144;2024-02-16T10:00:30;101089.40;;;12.80
66403;BMP180;53212;52.112;5.144;2024-02-16T10:02:55;101098.80;;;12.72
66403;BMP180;53212;52.112;5.144;2024-02-16T10:05:21;101105.60;;;12.70
66403;BMP180;53212;52.112;5.144;2024-02-16T10:07:47;101108.20;;;12.62
66403;BMP180;53212;52.112;5.144;2024-02-16T10:10:39;101111.80;;;12.60
66403;BMP180;53212;52.112;5.144;2024-02-16T10:13:06;101111.40;;;12.60
66403;BMP180;53212;52.112;5.144;2024-02-16T10:15:32;101117.00;;;12.50
66403;BMP180;53212;52.112;5.144;2024-02-16T10:18:02;101128.20;;;12.40
66403;BMP180;53212;52.112;5.144;2024-02-16T10:20:29;101139.60;;;12.30
66403;BMP180;53212;52.112;5.144;2024-02-16T10:23:11;101149.00;;;12.30
66403;BMP180;53212;52.112;5.144;2024-02-16T10:25:40;101159.60;;;12.20
66403;BMP180;53212;52.112;5.144;2024-02-16T10:28:09;101162.40;;;12.10
66403;BMP180;53212;52.112;5.144;2024-02-16T10:30:41;101157.00;;;12.10
66403;BMP180;53212;52.112;5.144;2024-02-16T10:33:10;101164.60;;;12.00
66403;BMP180;53212;52.112;5.144;2024-02-16T10:35:38;101181.60;;;12.00
66403;BMP180;53212;52.112;5.144;2024-02-16T10:38:08;101190.20;;;11.92
66403;BMP180;53212;52.112;5.144;2024-02-16T10:40:40;101192.40;;;11.90
66403;BMP180;53212;52.112;5.144;2024-02-16T10:43:08;101207.00;;;11.90
66403;BMP180;53212;52.112;5.144;2024-02-16T10:45:36;101221.60;;;11.90
66403;BMP180;53212;52.112;5.144;2024-02-16T10:48:04;101218.00;;;11.80
66403;BMP180;53212;52.112;5.144;2024-02-16T10:50:32;101214.00;;;11.86
66403;BMP180;53212;52.112;5.144;2024-02-16T10:53:12;101218.40;;;11.90
66403;BMP180;53212;52.112;5.144;2024-02-16T10:55:39;101232.20;;;11.90
66403;BMP180;53212;52.112;5.144;2024-02-16T10:58:07;101233.20;;;11.80
66403;BMP180;53212;52.112;5.144;2024-02-16T11:00:33;101244.80;;;11.70
66403;BMP180;53212;52.112;5.144;2024-02-16T11:03:03;101237.60;;;11.70
66403;BMP180;53212;52.112;5.144;2024-02-16T11:05:39;101236.40;;;11.70
66403;BMP180;53212;52.112;5.144;2024-02-16T11:08:14;101229.00;;;11.80
66403;BMP180;53212;52.112;5.144;2024-02-16T11:10:40;101226.40;;;11.80
66403;BMP180;53212;52.112;5.144;2024-02-16T11:13:05;101224.20;;;11.90
66403;BMP180;53212;52.112;5.144;2024-02-16T11:15:33;101237.00;;;11.98
66403;BMP180;53212;52.112;5.144;2024-02-16T11:18:03;101242.60;;;12.00
66403;BMP180;53212;52.112;5.144;2024-02-16T11:20:37;101249.40;;;12.00
66403;BMP180;53212;52.112;5.144;2024-02-16T11:23:11;101254.20;;;12.00
66403;BMP180;53212;52.112;5.144;2024-02-16T11:25:37;101250.00;;;12.00
66403;BMP180;53212;52.112;5.144;2024-02-16T11:28:03;101243.20;;;12.00
66403;BMP180;53212;52.112;5.144;2024-02-16T11:30:33;101241.20;;;12.02
66403;BMP180;53212;52.112;5.144;2024-02-16T11:33:00;101240.60;;;12.00
66403;BMP180;53212;52.112;5.144;2024-02-16T11:35:26;101247.00;;;12.00
66403;BMP180;53212;52.112;5.144;2024-02-16T11:37:51;101244.80;;;12.00
66403;BMP180;53212;52.112;5.144;2024-02-16T11:40:17;101257.60;;;12.00
66403;BMP180;53212;52.112;5.144;2024-02-16T11:42:44;101268.00;;;12.00
66403;BMP180;53212;52.112;5.144;2024-02-16T11:45:12;101282.60;;;12.10
66403;BMP180;53212;52.112;5.144;2024-02-16T11:47:38;101293.40;;;12.00
66403;BMP180;53212;52.112;5.144;2024-02-16T11:50:09;101295.40;;;12.00
66403;BMP180;53212;52.112;5.144;2024-02-16T11:52:41;101296.20;;;12.00
66403;BMP180;53212;52.112;5.144;2024-02-16T11:55:13;101308.00;;;11.92
66403;BMP180;53212;52.112;5.144;2024-02-16T11:57:40;101312.20;;;11.94
66403;BMP180;53212;52.112;5.144;2024-02-16T12:00:07;101314.00;;;11.90
66403;BMP180;53212;52.112;5.144;2024-02-16T12:02:35;101313.80;;;11.90
66403;BMP180;53212;52.112;5.144;2024-02-16T12:05:02;101324.80;;;11.80
66403;BMP180;53212;52.112;5.144;2024-02-16T12:07:28;101330.80;;;11.80
66403;BMP180;53212;52.112;5.144;2024-02-16T12:10:02;101333.80;;;11.70
66403;BMP180;53212;52.112;5.144;2024-02-16T12:12:31;101345.60;;;11.70
66403;BMP180;53212;52.112;5.144;2024-02-16T12:14:56;101348.20;;;11.60
66403;BMP180;53212;52.112;5.144;2024-02-16T12:17:23;101349.60;;;11.62
66403;BMP180;53212;52.112;5.144;2024-02-16T12:19:50;101352.80;;;11.70
66403;BMP180;53212;52.112;5.144;2024-02-16T12:22:20;101360.20;;;11.72
66403;BMP180;53212;52.112;5.144;2024-02-16T12:24:50;101361.80;;;11.78
66403;BMP180;53212;52.112;5.144;2024-02-16T12:27:16;101359.60;;;11.80
66403;BMP180;53212;52.112;5.144;2024-02-16T12:29:42;101361.80;;;11.80
66403;BMP180;53212;52.112;5.144;2024-02-16T12:32:07;101356.00;;;11.86
66403;BMP180;53212;52.112;5.144;2024-02-16T12:34:36;101363.60;;;11.90
66403;BMP180;53212;52.112;5.144;2024-02-16T12:37:06;101362.60;;;12.00
66403;BMP180;53212;52.112;5.144;2024-02-16T12:39:36;101367.40;;;12.18
66403;BMP180;53212;52.112;5.144;2024-02-16T12:42:02;101374.80;;;12.30
66403;BMP180;53212;52.112;5.144;2024-02-16T12:44:28;101387.20;;;12.50
66403;BMP180;53212;52.112;5.144;2024-02-16T12:46:54;101393.80;;;12.50
66403;BMP180;53212;52.112;5.144;2024-02-16T12:49:19;101398.60;;;12.44
66403;BMP180;53212;52.112;5.144;2024-02-16T12:51:51;101397.20;;;12.50
66403;BMP180;53212;52.112;5.144;2024-02-16T12:54:18;101400.40;;;12.50
66403;BMP180;53212;52.112;5.144;2024-02-16T12:56:48;101403.20;;;12.50
66403;BMP180;53212;52.112;5.144;2024-02-16T12:59:15;101408.00;;;12.60
66403;BMP180;53212;52.112;5.144;2024-02-16T13:01:40;101416.00;;;12.80
66403;BMP180;53212;52.112;5.144;2024-02-16T13:04:07;101421.00;;;12.70
66403;BMP180;53212;52.112;5.144;2024-02-16T13:06:33;101426.20;;;12.60
66403;BMP180;53212;52.112;5.144;2024-02-16T13:08:58;101426.80;;;12.60
66403;BMP180;53212;52.112;5.144;2024-02-16T13:11:24;101443.00;;;12.66
66403;BMP180;53212;52.112;5.144;2024-02-16T13:13:50;101443.20;;;12.70
66403;BMP180;53212;52.112;5.144;2024-02-16T13:16:18;101447.00;;;12.70
66403;BMP180;53212;52.112;5.144;2024-02-16T13:18:43;101455.80;;;12.70
66403;BMP180;53212;52.112;5.144;2024-02-16T13:21:09;101453.60;;;12.70
66403;BMP180;53212;52.112;5.144;2024-02-16T13:23:37;101460.00;;;12.70
66403;BMP180;53212;52.112;5.144;2024-02-16T13:26:02;101464.60;;;12.60
66403;BMP180;53212;52.112;5.144;2024-02-16T13:28:29;101466.20;;;12.40
66403;BMP180;53212;52.112;5.144;2024-02-16T13:30:55;101465.20;;;12.40
66403;BMP180;53212;52.112;5.144;2024-02-16T13:33:21;101470.40;;;12.30
66403;BMP180;53212;52.112;5.144;2024-02-16T13:35:46;101471.20;;;12.20
66403;BMP180;53212;52.112;5.144;2024-02-16T13:38:12;101470.20;;;12.10
66403;BMP180;53212;52.112;5.144;2024-02-16T13:40:39;101469.00;;;12.00
66403;BMP180;53212;52.112;5.144;2024-02-16T13:43:04;101482.80;;;12.00
66403;BMP180;53212;52.112;5.144;2024-02-16T13:45:52;101486.40;;;11.90
66403;BMP180;53212;52.112;5.144;2024-02-16T13:48:18;101486.40;;;11.90
66403;BMP180;53212;52.112;5.144;2024-02-16T13:50:49;101489.40;;;11.90
66403;BMP180;53212;52.112;5.144;2024-02-16T13:53:15;101491.40;;;11.90
66403;BMP180;53212;52.112;5.144;2024-02-16T13:55:44;101494.40;;;11.90